sensor_id;sensor_type;location;lat;lon;timestamp;P1;durP1;ratioP1;P2;durP2;ratioP2
43626;SDS011;29217;52.586;13.442;2023-04-15T00:00:27;44.17;;;19.80;;
43626;SDS011;29217;52.586;13.442;2023-04-15T00:02:53;37.80;;;18.23;;
43626;SDS011;29217;52.586;13.442;2023-04-15T00:05:19;43.78;;;19.75;;
43626;SDS011;29217;52.586;13.442;2023-04-15T00:07:45;44.47;;;19.75;;
43626;SDS011;29217;52.586;13.442;2023-04-15T00:10:11;46.55;;;19.13;;
43626;SDS011;29217;52.586;13.442;2023-04-15T00:12:36;44.35;;;20.20;;
43626;SDS011;29217;52.586;13.442;2023-04-15T00:15:02;45.53;;;20.48;;
43626;SDS011;29217;52.586;13.442;2023-04-15T00:17:28;45.90;;;20.52;;
43626;SDS011;29217;52.586;13.442;2023-04-15T00:19:54;45.63;;;20.02;;
43626;SDS011;29217;52.586;13.442;2023-04-15T00:22:20;48.42;;;22.52;;
43626;SDS011;29217;52.586;13.442;2023-04-15T00:24:46;51.33;;;21.75;;
43626;SDS011;29217;52.586;13.442;2023-04-15T00:27:12;46.63;;;21.33;;
43626;SDS011;29217;52.586;13.442;2023-04-15T00:29:38;47.28;;;20.67;;
43626;SDS011;29217;52.586;13.442;2023-04-15T00:32:03;47.00;;;21.13;;
43626;SDS011;29217;52.586;13.442;2023-04-15T00:34:29;52.00;;;21.08;;
43626;SDS011;29217;52.586;13.442;2023-04-15T00:36:55;50.85;;;21.65;;
43626;SDS011;29217;52.586;13.442;2023-04-15T00:39:21;54.58;;;21.92;;
43626;SDS011;29217;52.586;13.442;2023-04-15T00:41:46;49.10;;;21.85;;
43626;SDS011;29217;52.586;13.442;2023-04-15T00:44:13;50.47;;;22.25;;
43626;SDS011;29217;52.586;13.442;2023-04-15T00:46:39;54.58;;;22.88;;
43626;SDS011;29217;52.586;13.442;2023-04-15T00:49:05;54.67;;;23.13;;
43626;SDS011;29217;52.586;13.442;2023-04-15T00:51:34;62.08;;;23.15;;
43626;SDS011;29217;52.586;13.442;2023-04-15T00:54:01;59.25;;;23.90;;
43626;SDS011;29217;52.586;13.442;2023-04-15T00:56:28;56.10;;;23.80;;
43626;SDS011;29217;52.586;13.442;2023-04-15T00:58:54;56.72;;;22.35;;
43626;SDS011;29217;52.586;13.442;2023-04-15T01:01:20;60.22;;;23.50;;
43626;SDS011;29217;52.586;13.442;2023-04-15T01:03:48;54.63;;;22.98;;
43626;SDS011;29217;52.586;13.442;2023-04-15T01:06:15;52.80;;;22.58;;
43626;SDS011;29217;52.586;13.442;2023-04-15T01:08:41;61.15;;;23.35;;
43626;SDS011;29217;52.586;13.442;2023-04-15T01:11:07;61.45;;;24.65;;
43626;SDS011;29217;52.586;13.442;2023-04-15T01:13:34;54.45;;;23.02;;
43626;SDS011;29217;52.586;13.442;2023-04-15T01:16:00;60.42;;;24.67;;
43626;SDS011;29217;52.586;13.442;2023-04-15T01:18:27;59.33;;;24.23;;
43626;SDS011;29217;52.586;13.442;2023-04-15T01:20:53;53.38;;;22.90;;
43626;SDS011;29217;52.586;13.442;2023-04-15T01:23:20;61.90;;;23.83;;
43626;SDS011;29217;52.586;13.442;2023-04-15T01:25:49;61.85;;;23.08;;
43626;SDS011;29217;52.586;13.442;2023-04-15T01:28:15;59.70;;;23.92;;
43626;SDS011;29217;52.586;13.442;2023-04-15T01:30:41;58.55;;;24.27;;
43626;SDS011;29217;52.586;13.442;2023-04-15T01:33:07;58.95;;;23.50;;
43626;SDS011;29217;52.586;13.442;2023-04-15T01:35:33;61.58;;;23.63;;
43626;SDS011;29217;52.586;13.442;2023-04-15T01:38:02;56.00;;;23.10;;
43626;SDS011;29217;52.586;13.442;2023-04-15T01:40:30;57.78;;;23.17;;
43626;SDS011;29217;52.586;13.442;2023-04-15T01:42:56;61.00;;;22.60;;
43626;SDS011;29217;52.586;13.442;2023-04-15T01:45:21;59.53;;;23.42;;
43626;SDS011;29217;52.586;13.442;2023-04-15T01:47:47;67.22;;;26.33;;
43626;SDS011;29217;52.586;13.442;2023-04-15T01:50:13;57.63;;;22.52;;
43626;SDS011;29217;52.586;13.442;2023-04-15T01:52:39;61.05;;;24.02;;
43626;SDS011;29217;52.586;13.442;2023-04-15T01:55:05;55.75;;;23.55;;
43626;SDS011;29217;52.586;13.442;2023-04-15T01:57:32;60.80;;;24.00;;
43626;SDS011;29217;52.586;13.442;2023-04-15T01:59:58;61.97;;;23.55;;
43626;SDS011;29217;52.586;13.442;2023-04-15T02:02:23;66.45;;;24.27;;
43626;SDS011;29217;52.586;13.442;2023-04-15T02:04:50;53.53;;;22.55;;
43626;SDS011;29217;52.586;13.442;2023-04-15T02:07:15;64.03;;;25.13;;
43626;SDS011;29217;52.586;13.442;2023-04-15T02:09:41;59.63;;;22.90;;
43626;SDS011;29217;52.586;13.442;2023-04-15T02:12:08;59.85;;;24.52;;
43626;SDS011;29217;52.586;13.442;2023-04-15T02:14:33;61.50;;;24.10;;
43626;SDS011;29217;52.586;13.442;2023-04-15T02:16:59;57.70;;;22.55;;
43626;SDS011;29217;52.586;13.442;2023-04-15T02:19:31;61.13;;;24.02;;
43626;SDS011;29217;52.586;13.442;2023-04-15T02:21:58;60.38;;;24.63;;
43626;SDS011;29217;52.586;13.442;2023-04-15T02:24:25;59.08;;;23.48;;
43626;SDS011;29217;52.586;13.442;2023-04-15T02:26:51;58.88;;;24.05;;
43626;SDS011;29217;52.586;13.442;2023-04-15T02:29:16;59.40;;;22.92;;
43626;SDS011;29217;52.586;13.442;2023-04-15T02:31:42;59.08;;;23.45;;
43626;SDS011;29217;52.586;13.442;2023-04-15T02:34:09;57.85;;;23.60;;
43626;SDS011;29217;52.586;13.442;2023-04-15T02:36:34;53.85;;;22.45;;
43626;SDS011;29217;52.586;13.442;2023-04-15T02:39:00;56.63;;;24.52;;
43626;SDS011;29217;52.586;13.442;2023-04-15T02:41:26;58.47;;;22.55;;
43626;SDS011;29217;52.586;13.442;2023-04-15T02:43:54;58.08;;;22.73;;
43626;SDS011;29217;52.586;13.442;2023-04-15T02:46:20;57.25;;;21.80;;
43626;SDS011;29217;52.586;13.442;2023-04-15T02:48:46;56.50;;;22.65;;
43626;SDS011;29217;52.586;13.442;2023-04-15T02:53:39;60.47;;;23.02;;
43626;SDS011;29217;52.586;13.442;2023-04-15T02:56:05;56.28;;;23.15;;
43626;SDS011;29217;52.586;13.442;2023-04-15T02:58:32;55.35;;;23.48;;
43626;SDS011;29217;52.586;13.442;2023-04-15T03:00:59;51.72;;;23.05;;
43626;SDS011;29217;52.586;13.442;2023-04-15T03:03:24;57.90;;;23.75;;
43626;SDS011;29217;52.586;13.442;2023-04-15T03:05:52;57.45;;;23.30;;
43626;SDS011;29217;52.586;13.442;2023-04-15T03:08:17;57.85;;;23.58;;
43626;SDS011;29217;52.586;13.442;2023-04-15T03:10:43;58.83;;;23.30;;
43626;SDS011;29217;52.586;13.442;2023-04-15T03:13:08;55.58;;;22.70;;
43626;SDS011;29217;52.586;13.442;2023-04-15T03:15:34;60.63;;;23.27;;
43626;SDS011;29217;52.586;13.442;2023-04-15T03:18:00;56.70;;;22.52;;
43626;SDS011;29217;52.586;13.442;2023-04-15T03:20:27;55.80;;;23.65;;
43626;SDS011;29217;52.586;13.442;2023-04-15T03:22:52;63.08;;;22.77;;
43626;SDS011;29217;52.586;13.442;2023-04-15T03:25:18;56.30;;;23.88;;
43626;SDS011;29217;52.586;13.442;2023-04-15T03:27:43;49.90;;;20.48;;
43626;SDS011;29217;52.586;13.442;2023-04-15T03:30:09;57.63;;;23.50;;
43626;SDS011;29217;52.586;13.442;2023-04-15T03:32:35;57.35;;;22.98;;
43626;SDS011;29217;52.586;13.442;2023-04-15T03:35:01;54.72;;;22.38;;
43626;SDS011;29217;52.586;13.442;2023-04-15T03:37:26;58.00;;;23.73;;
43626;SDS011;29217;52.586;13.442;2023-04-15T03:39:52;49.70;;;22.05;;
43626;SDS011;29217;52.586;13.442;2023-04-15T03:42:17;55.10;;;22.40;;
43626;SDS011;29217;52.586;13.442;2023-04-15T03:44:43;48.78;;;22.05;;
43626;SDS011;29217;52.586;13.442;2023-04-15T03:47:08;56.65;;;23.27;;
43626;SDS011;29217;52.586;13.442;2023-04-15T03:49:35;49.88;;;22.42;;
43626;SDS011;29217;52.586;13.442;2023-04-15T03:52:01;51.13;;;21.95;;
43626;SDS011;29217;52.586;13.442;2023-04-15T03:54:26;54.28;;;22.45;;
43626;SDS011;29217;52.586;13.442;2023-04-15T03:56:52;58.63;;;23.42;;
43626;SDS011;29217;52.586;13.442;2023-04-15T03:59:18;50.83;;;22.27;;
43626;SDS011;29217;52.586;13.442;2023-04-15T04:01:44;52.67;;;22.48;;
43626;SDS011;29217;52.586;13.442;2023-04-15T04:04:09;47.85;;;22.20;;
43626;SDS011;29217;52.586;13.442;2023-04-15T04:06:35;53.70;;;21.75;;
43626;SDS011;29217;52.586;13.442;2023-04-15T04:09:01;48.83;;;21.10;;
43626;SDS011;29217;52.586;13.442;2023-04-15T04:11:26;55.15;;;21.70;;
43626;SDS011;29217;52.586;13.442;2023-04-15T04:13:52;53.25;;;20.98;;
43626;SDS011;29217;52.586;13.442;2023-04-15T04:16:18;51.90;;;22.63;;
43626;SDS011;29217;52.586;13.442;2023-04-15T04:18:43;45.85;;;21.70;;
43626;SDS011;29217;52.586;13.442;2023-04-15T04:21:09;50.47;;;21.98;;
43626;SDS011;29217;52.586;13.442;2023-04-15T04:23:35;49.08;;;20.77;;
43626;SDS011;29217;52.586;13.442;2023-04-15T04:26:01;47.17;;;21.10;;
43626;SDS011;29217;52.586;13.442;2023-04-15T04:28:26;45.92;;;20.95;;
43626;SDS011;29217;52.586;13.442;2023-04-15T04:30:52;47.88;;;21.63;;
43626;SDS011;29217;52.586;13.442;2023-04-15T04:33:18;51.78;;;23.20;;
43626;SDS011;29217;52.586;13.442;2023-04-15T04:35:43;45.72;;;20.05;;
43626;SDS011;29217;52.586;13.442;2023-04-15T04:38:09;48.25;;;21.00;;
43626;SDS011;29217;52.586;13.442;2023-04-15T04:40:35;45.88;;;19.85;;
43626;SDS011;29217;52.586;13.442;2023-04-15T04:43:00;46.33;;;20.65;;
43626;SDS011;29217;52.586;13.442;2023-04-15T04:45:26;45.80;;;21.05;;
43626;SDS011;29217;52.586;13.442;2023-04-15T04:47:52;43.17;;;19.08;;
43626;SDS011;29217;52.586;13.442;2023-04-15T04:50:17;45.28;;;20.92;;
43626;SDS011;29217;52.586;13.442;2023-04-15T04:52:43;41.85;;;19.70;;
43626;SDS011;29217;52.586;13.442;2023-04-15T04:55:09;40.63;;;19.95;;
43626;SDS011;29217;52.586;13.442;2023-04-15T04:57:34;40.72;;;20.13;;
43626;SDS011;29217;52.586;13.442;2023-04-15T05:00:00;43.38;;;21.05;;
43626;SDS011;29217;52.586;13.442;2023-04-15T05:02:28;46.20;;;20.25;;
43626;SDS011;29217;52.586;13.442;2023-04-15T05:04:54;48.83;;;21.95;;
43626;SDS011;29217;52.586;13.442;2023-04-15T05:07:20;44.13;;;21.05;;
43626;SDS011;29217;52.586;13.442;2023-04-15T05:09:46;44.25;;;19.50;;
43626;SDS011;29217;52.586;13.442;2023-04-15T05:12:11;44.40;;;20.25;;
43626;SDS011;29217;52.586;13.442;2023-04-15T05:14:39;45.88;;;20.10;;
43626;SDS011;29217;52.586;13.442;2023-04-15T05:17:06;37.55;;;18.83;;
43626;SDS011;29217;52.586;13.442;2023-04-15T05:19:31;40.33;;;19.70;;
43626;SDS011;29217;52.586;13.442;2023-04-15T05:21:57;37.67;;;18.42;;
43626;SDS011;29217;52.586;13.442;2023-04-15T05:24:23;42.83;;;19.52;;
43626;SDS011;29217;52.586;13.442;2023-04-15T05:26:48;41.50;;;19.27;;
43626;SDS011;29217;52.586;13.442;2023-04-15T05:29:14;38.25;;;18.52;;
43626;SDS011;29217;52.586;13.442;2023-04-15T05:31:40;44.15;;;19.60;;
43626;SDS011;29217;52.586;13.442;2023-04-15T05:34:06;42.05;;;19.30;;
43626;SDS011;29217;52.586;13.442;2023-04-15T05:36:31;42.92;;;19.77;;
43626;SDS011;29217;52.586;13.442;2023-04-15T05:38:57;43.45;;;19.25;;
43626;SDS011;29217;52.586;13.442;2023-04-15T05:41:22;35.22;;;18.77;;
43626;SDS011;29217;52.586;13.442;2023-04-15T05:43:48;38.42;;;19.05;;
43626;SDS011;29217;52.586;13.442;2023-04-15T05:46:14;36.97;;;17.98;;
43626;SDS011;29217;52.586;13.442;2023-04-15T05:48:39;38.35;;;17.67;;
43626;SDS011;29217;52.586;13.442;2023-04-15T05:51:05;35.00;;;17.80;;
43626;SDS011;29217;52.586;13.442;2023-04-15T05:53:31;40.22;;;18.15;;
43626;SDS011;29217;52.586;13.442;2023-04-15T05:55:56;39.20;;;18.63;;
43626;SDS011;29217;52.586;13.442;2023-04-15T05:58:22;36.20;;;17.02;;
43626;SDS011;29217;52.586;13.442;2023-04-15T06:00:47;31.80;;;17.42;;
43626;SDS011;29217;52.586;13.442;2023-04-15T06:03:13;34.28;;;18.33;;
43626;SDS011;29217;52.586;13.442;2023-04-15T06:05:39;33.47;;;16.45;;
43626;SDS011;29217;52.586;13.442;2023-04-15T06:08:05;37.65;;;16.95;;
43626;SDS011;29217;52.586;13.442;2023-04-15T06:10:30;33.92;;;16.85;;
43626;SDS011;29217;52.586;13.442;2023-04-15T06:13:00;30.80;;;16.08;;
43626;SDS011;29217;52.586;13.442;2023-04-15T06:15:27;32.95;;;17.38;;
43626;SDS011;29217;52.586;13.442;2023-04-15T06:17:53;29.65;;;15.13;;
43626;SDS011;29217;52.586;13.442;2023-04-15T06:20:19;26.65;;;14.93;;
43626;SDS011;29217;52.586;13.442;2023-04-15T06:22:45;34.25;;;16.55;;
43626;SDS011;29217;52.586;13.442;2023-04-15T06:25:11;26.83;;;14.02;;
43626;SDS011;29217;52.586;13.442;2023-04-15T06:27:37;31.13;;;15.30;;
43626;SDS011;29217;52.586;13.442;2023-04-15T06:30:03;28.92;;;14.45;;
43626;SDS011;29217;52.586;13.442;2023-04-15T06:32:29;26.63;;;13.50;;
43626;SDS011;29217;52.586;13.442;2023-04-15T06:34:54;23.02;;;13.35;;
43626;SDS011;29217;52.586;13.442;2023-04-15T06:37:20;24.27;;;13.63;;
43626;SDS011;29217;52.586;13.442;2023-04-15T06:39:46;21.10;;;12.18;;
43626;SDS011;29217;52.586;13.442;2023-04-15T06:42:11;25.08;;;13.68;;
43626;SDS011;29217;52.586;13.442;2023-04-15T06:44:37;25.48;;;13.85;;
43626;SDS011;29217;52.586;13.442;2023-04-15T06:47:03;21.80;;;12.35;;
43626;SDS011;29217;52.586;13.442;2023-04-15T06:49:29;21.70;;;11.30;;
43626;SDS011;29217;52.586;13.442;2023-04-15T06:51:54;20.20;;;11.85;;
43626;SDS011;29217;52.586;13.442;2023-04-15T06:54:20;25.33;;;11.85;;
43626;SDS011;29217;52.586;13.442;2023-04-15T06:56:46;19.77;;;10.98;;
43626;SDS011;29217;52.586;13.442;2023-04-15T06:59:12;19.00;;;11.55;;
43626;SDS011;29217;52.586;13.442;2023-04-15T07:01:39;20.15;;;11.20;;
43626;SDS011;29217;52.586;13.442;2023-04-15T07:04:05;17.50;;;9.65;;
43626;SDS011;29217;52.586;13.442;2023-04-15T07:06:31;17.35;;;10.27;;
43626;SDS011;29217;52.586;13.442;2023-04-15T07:08:57;21.55;;;9.80;;
43626;SDS011;29217;52.586;13.442;2023-04-15T07:11:24;16.85;;;9.98;;
43626;SDS011;29217;52.586;13.442;2023-04-15T07:13:50;19.80;;;10.20;;
43626;SDS011;29217;52.586;13.442;2023-04-15T07:16:16;17.02;;;9.65;;
43626;SDS011;29217;52.586;13.442;2023-04-15T07:18:42;19.73;;;10.13;;
43626;SDS011;29217;52.586;13.442;2023-04-15T07:21:08;19.02;;;11.07;;
43626;SDS011;29217;52.586;13.442;2023-04-15T07:23:33;17.25;;;10.57;;
43626;SDS011;29217;52.586;13.442;2023-04-15T07:25:59;19.05;;;10.77;;
43626;SDS011;29217;52.586;13.442;2023-04-15T07:28:25;24.20;;;10.95;;
43626;SDS011;29217;52.586;13.442;2023-04-15T07:30:51;19.98;;;10.93;;
43626;SDS011;29217;52.586;13.442;2023-04-15T07:33:17;21.35;;;11.10;;
43626;SDS011;29217;52.586;13.442;2023-04-15T07:35:42;18.52;;;10.70;;
43626;SDS011;29217;52.586;13.442;2023-04-15T07:38:09;16.50;;;10.18;;
43626;SDS011;29217;52.586;13.442;2023-04-15T07:40:36;19.73;;;9.90;;
43626;SDS011;29217;52.586;13.442;2023-04-15T07:43:03;19.35;;;10.80;;
43626;SDS011;29217;52.586;13.442;2023-04-15T07:45:29;19.35;;;11.25;;
43626;SDS011;29217;52.586;13.442;2023-04-15T07:47:55;18.25;;;11.55;;
43626;SDS011;29217;52.586;13.442;2023-04-15T07:50:21;21.67;;;11.27;;
43626;SDS011;29217;52.586;13.442;2023-04-15T07:52:47;17.60;;;11.07;;
43626;SDS011;29217;52.586;13.442;2023-04-15T07:55:13;19.50;;;11.85;;
43626;SDS011;29217;52.586;13.442;2023-04-15T07:57:41;24.05;;;12.80;;
43626;SDS011;29217;52.586;13.442;2023-04-15T08:00:07;26.23;;;11.90;;
43626;SDS011;29217;52.586;13.442;2023-04-15T08:02:33;19.02;;;9.77;;
43626;SDS011;29217;52.586;13.442;2023-04-15T08:04:59;19.00;;;12.25;;
43626;SDS011;29217;52.586;13.442;2023-04-15T08:07:27;19.63;;;11.85;;
43626;SDS011;29217;52.586;13.442;2023-04-15T08:09:52;20.10;;;11.40;;
43626;SDS011;29217;52.586;13.442;2023-04-15T08:12:18;17.00;;;10.70;;
43626;SDS011;29217;52.586;13.442;2023-04-15T08:14:43;16.60;;;11.15;;
43626;SDS011;29217;52.586;13.442;2023-04-15T08:17:09;19.60;;;11.90;;
43626;SDS011;29217;52.586;13.442;2023-04-15T08:19:35;22.05;;;11.38;;
43626;SDS011;29217;52.586;13.442;2023-04-15T08:22:01;20.40;;;11.70;;
43626;SDS011;29217;52.586;13.442;2023-04-15T08:24:26;23.25;;;13.07;;
43626;SDS011;29217;52.586;13.442;2023-04-15T08:26:52;23.52;;;13.48;;
43626;SDS011;29217;52.586;13.442;2023-04-15T08:29:18;20.00;;;12.68;;
43626;SDS011;29217;52.586;13.442;2023-04-15T08:31:44;27.77;;;16.55;;
43626;SDS011;29217;52.586;13.442;2023-04-15T08:34:12;22.15;;;13.48;;
43626;SDS011;29217;52.586;13.442;2023-04-15T08:36:39;21.40;;;12.60;;
43626;SDS011;29217;52.586;13.442;2023-04-15T08:39:04;18.42;;;11.85;;
43626;SDS011;29217;52.586;13.442;2023-04-15T08:41:34;20.27;;;11.60;;
43626;SDS011;29217;52.586;13.442;2023-04-15T08:44:04;19.40;;;12.68;;
43626;SDS011;29217;52.586;13.442;2023-04-15T08:46:31;19.38;;;12.05;;
43626;SDS011;29217;52.586;13.442;2023-04-15T08:48:58;20.63;;;11.93;;
43626;SDS011;29217;52.586;13.442;2023-04-15T08:51:27;21.85;;;11.23;;
43626;SDS011;29217;52.586;13.442;2023-04-15T08:53:53;19.30;;;11.73;;
43626;SDS011;29217;52.586;13.442;2023-04-15T08:56:18;18.50;;;11.82;;
43626;SDS011;29217;52.586;13.442;2023-04-15T08:58:49;19.83;;;12.50;;
43626;SDS011;29217;52.586;13.442;2023-04-15T09:01:14;20.02;;;12.40;;
43626;SDS011;29217;52.586;13.442;2023-04-15T09:03:41;19.33;;;11.40;;
43626;SDS011;29217;52.586;13.442;2023-04-15T09:06:07;22.20;;;13.40;;
43626;SDS011;29217;52.586;13.442;2023-04-15T09:08:33;17.55;;;10.52;;
43626;SDS011;29217;52.586;13.442;2023-04-15T09:11:00;19.08;;;11.95;;
43626;SDS011;29217;52.586;13.442;2023-04-15T09:13:28;20.30;;;11.68;;
43626;SDS011;29217;52.586;13.442;2023-04-15T09:15:54;18.02;;;11.30;;
43626;SDS011;29217;52.586;13.442;2023-04-15T09:18:34;19.63;;;11.40;;
43626;SDS011;29217;52.586;13.442;2023-04-15T09:23:32;18.95;;;10.98;;
43626;SDS011;29217;52.586;13.442;2023-04-15T09:25:59;19.05;;;10.95;;
43626;SDS011;29217;52.586;13.442;2023-04-15T09:28:28;15.73;;;9.75;;
43626;SDS011;29217;52.586;13.442;2023-04-15T09:30:55;19.17;;;11.45;;
43626;SDS011;29217;52.586;13.442;2023-04-15T09:33:25;19.73;;;11.93;;
43626;SDS011;29217;52.586;13.442;2023-04-15T09:35:55;16.83;;;10.32;;
43626;SDS011;29217;52.586;13.442;2023-04-15T09:38:23;18.30;;;11.27;;
43626;SDS011;29217;52.586;13.442;2023-04-15T09:40:48;17.73;;;11.15;;
43626;SDS011;29217;52.586;13.442;2023-04-15T09:43:15;18.58;;;11.25;;
43626;SDS011;29217;52.586;13.442;2023-04-15T09:45:48;19.38;;;11.23;;
43626;SDS011;29217;52.586;13.442;2023-04-15T09:48:15;18.73;;;10.68;;
43626;SDS011;29217;52.586;13.442;2023-04-15T09:50:46;17.60;;;11.18;;
43626;SDS011;29217;52.586;13.442;2023-04-15T09:53:17;17.80;;;11.10;;
43626;SDS011;29217;52.586;13.442;2023-04-15T09:55:54;18.80;;;10.65;;
43626;SDS011;29217;52.586;13.442;2023-04-15T09:58:26;16.95;;;10.65;;
43626;SDS011;29217;52.586;13.442;2023-04-15T10:00:54;16.50;;;10.60;;
43626;SDS011;29217;52.586;13.442;2023-04-15T10:03:30;16.02;;;9.95;;
43626;SDS011;29217;52.586;13.442;2023-04-15T10:05:58;21.10;;;10.48;;
43626;SDS011;29217;52.586;13.442;2023-04-15T10:08:26;15.55;;;9.52;;
43626;SDS011;29217;52.586;13.442;2023-04-15T10:10:54;16.55;;;10.38;;
43626;SDS011;29217;52.586;13.442;2023-04-15T10:13:20;19.90;;;10.93;;
43626;SDS011;29217;52.586;13.442;2023-04-15T10:16:01;17.92;;;10.73;;
43626;SDS011;29217;52.586;13.442;2023-04-15T10:18:36;18.33;;;10.45;;
43626;SDS011;29217;52.586;13.442;2023-04-15T10:21:08;16.58;;;10.95;;
43626;SDS011;29217;52.586;13.442;2023-04-15T10:23:34;17.05;;;10.43;;
43626;SDS011;29217;52.586;13.442;2023-04-15T10:26:00;20.15;;;11.65;;
43626;SDS011;29217;52.586;13.442;2023-04-15T10:28:28;20.65;;;11.77;;
43626;SDS011;29217;52.586;13.442;2023-04-15T10:30:54;18.83;;;10.73;;
43626;SDS011;29217;52.586;13.442;2023-04-15T10:33:22;18.50;;;11.40;;
43626;SDS011;29217;52.586;13.442;2023-04-15T10:35:49;18.15;;;10.50;;
43626;SDS011;29217;52.586;13.442;2023-04-15T10:46:22;18.92;;;10.75;;
43626;SDS011;29217;52.586;13.442;2023-04-15T10:51:35;19.13;;;12.18;;
43626;SDS011;29217;52.586;13.442;2023-04-15T10:54:16;18.73;;;11.77;;
43626;SDS011;29217;52.586;13.442;2023-04-15T10:59:35;17.45;;;11.18;;
43626;SDS011;29217;52.586;13.442;2023-04-15T11:02:03;18.10;;;10.52;;
43626;SDS011;29217;52.586;13.442;2023-04-15T11:10:01;16.50;;;9.68;;
43626;SDS011;29217;52.586;13.442;2023-04-15T11:12:34;19.45;;;10.77;;
43626;SDS011;29217;52.586;13.442;2023-04-15T11:15:23;20.38;;;11.73;;
43626;SDS011;29217;52.586;13.442;2023-04-15T11:20:43;17.95;;;10.75;;
43626;SDS011;29217;52.586;13.442;2023-04-15T11:23:19;17.88;;;11.55;;
43626;SDS011;29217;52.586;13.442;2023-04-15T11:26:03;17.85;;;10.50;;
43626;SDS011;29217;52.586;13.442;2023-04-15T11:28:33;16.20;;;9.85;;
43626;SDS011;29217;52.586;13.442;2023-04-15T11:31:06;14.63;;;9.75;;
43626;SDS011;29217;52.586;13.442;2023-04-15T11:33:32;18.48;;;10.30;;
43626;SDS011;29217;52.586;13.442;2023-04-15T11:35:58;15.77;;;11.05;;
43626;SDS011;29217;52.586;13.442;2023-04-15T11:38:25;21.55;;;12.10;;
43626;SDS011;29217;52.586;13.442;2023-04-15T11:40:50;20.13;;;11.20;;
43626;SDS011;29217;52.586;13.442;2023-04-15T11:43:19;24.67;;;12.48;;
43626;SDS011;29217;52.586;13.442;2023-04-15T11:45:50;17.58;;;11.15;;
43626;SDS011;29217;52.586;13.442;2023-04-15T11:48:16;17.08;;;11.20;;
43626;SDS011;29217;52.586;13.442;2023-04-15T11:50:42;23.05;;;11.20;;
43626;SDS011;29217;52.586;13.442;2023-04-15T11:53:09;19.92;;;11.02;;
43626;SDS011;29217;52.586;13.442;2023-04-15T11:58:15;19.80;;;10.73;;
43626;SDS011;29217;52.586;13.442;2023-04-15T12:06:06;15.18;;;9.65;;
43626;SDS011;29217;52.586;13.442;2023-04-15T12:16:51;15.70;;;9.50;;
43626;SDS011;29217;52.586;13.442;2023-04-15T12:22:01;16.02;;;10.68;;
43626;SDS011;29217;52.586;13.442;2023-04-15T12:24:33;16.88;;;10.38;;
43626;SDS011;29217;52.586;13.442;2023-04-15T12:27:03;15.55;;;10.35;;
43626;SDS011;29217;52.586;13.442;2023-04-15T12:29:31;18.23;;;11.07;;
43626;SDS011;29217;52.586;13.442;2023-04-15T12:32:03;16.85;;;10.93;;
43626;SDS011;29217;52.586;13.442;2023-04-15T12:34:32;22.05;;;11.98;;
43626;SDS011;29217;52.586;13.442;2023-04-15T12:37:00;17.10;;;11.80;;
43626;SDS011;29217;52.586;13.442;2023-04-15T12:39:28;22.55;;;12.32;;
43626;SDS011;29217;52.586;13.442;2023-04-15T12:41:55;17.40;;;11.32;;
43626;SDS011;29217;52.586;13.442;2023-04-15T12:44:24;20.63;;;11.90;;
43626;SDS011;29217;52.586;13.442;2023-04-15T12:46:50;19.02;;;12.05;;
43626;SDS011;29217;52.586;13.442;2023-04-15T12:49:22;17.98;;;11.40;;
43626;SDS011;29217;52.586;13.442;2023-04-15T12:51:48;18.48;;;11.32;;
43626;SDS011;29217;52.586;13.442;2023-04-15T12:54:15;20.48;;;10.90;;
43626;SDS011;29217;52.586;13.442;2023-04-15T12:56:41;18.48;;;10.93;;
43626;SDS011;29217;52.586;13.442;2023-04-15T12:59:08;15.98;;;10.10;;
43626;SDS011;29217;52.586;13.442;2023-04-15T13:01:33;15.98;;;9.57;;
43626;SDS011;29217;52.586;13.442;2023-04-15T13:04:00;16.73;;;10.25;;
43626;SDS011;29217;52.586;13.442;2023-04-15T13:06:25;17.52;;;10.75;;
43626;SDS011;29217;52.586;13.442;2023-04-15T13:08:53;18.10;;;10.30;;
43626;SDS011;29217;52.586;13.442;2023-04-15T13:11:19;16.15;;;10.15;;
43626;SDS011;29217;52.586;13.442;2023-04-15T13:13:46;14.45;;;10.00;;
43626;SDS011;29217;52.586;13.442;2023-04-15T13:16:12;17.17;;;10.88;;
43626;SDS011;29217;52.586;13.442;2023-04-15T13:18:37;18.35;;;9.85;;
43626;SDS011;29217;52.586;13.442;2023-04-15T13:21:03;17.08;;;10.57;;
43626;SDS011;29217;52.586;13.442;2023-04-15T13:23:31;15.65;;;9.70;;
43626;SDS011;29217;52.586;13.442;2023-04-15T13:25:57;17.73;;;10.05;;
43626;SDS011;29217;52.586;13.442;2023-04-15T13:28:22;15.35;;;9.43;;
43626;SDS011;29217;52.586;13.442;2023-04-15T13:30:48;14.63;;;9.70;;
43626;SDS011;29217;52.586;13.442;2023-04-15T13:33:15;15.75;;;9.95;;
43626;SDS011;29217;52.586;13.442;2023-04-15T13:35:41;14.10;;;9.68;;
43626;SDS011;29217;52.586;13.442;2023-04-15T13:38:06;21.23;;;10.18;;
43626;SDS011;29217;52.586;13.442;2023-04-15T13:40:32;16.65;;;9.85;;
43626;SDS011;29217;52.586;13.442;2023-04-15T13:42:57;15.05;;;9.68;;
43626;SDS011;29217;52.586;13.442;2023-04-15T13:45:24;17.67;;;10.75;;
43626;SDS011;29217;52.586;13.442;2023-04-15T13:47:50;16.25;;;9.85;;
43626;SDS011;29217;52.586;13.442;2023-04-15T13:50:15;14.02;;;9.98;;
43626;SDS011;29217;52.586;13.442;2023-04-15T13:52:41;16.27;;;9.95;;
43626;SDS011;29217;52.586;13.442;2023-04-15T13:55:07;15.35;;;9.75;;
43626;SDS011;29217;52.586;13.442;2023-04-15T13:57:33;14.88;;;9.18;;
43626;SDS011;29217;52.586;13.442;2023-04-15T13:59:58;13.43;;;8.68;;
43626;SDS011;29217;52.586;13.442;2023-04-15T14:02:24;14.15;;;9.40;;
43626;SDS011;29217;52.586;13.442;2023-04-15T14:04:50;14.18;;;9.10;;
43626;SDS011;29217;52.586;13.442;2023-04-15T14:07:15;15.23;;;9.10;;
43626;SDS011;29217;52.586;13.442;2023-04-15T14:09:42;16.58;;;9.07;;
43626;SDS011;29217;52.586;13.442;2023-04-15T14:12:08;15.10;;;9.75;;
43626;SDS011;29217;52.586;13.442;2023-04-15T14:14:35;18.80;;;10.52;;
43626;SDS011;29217;52.586;13.442;2023-04-15T14:17:01;20.08;;;10.52;;
43626;SDS011;29217;52.586;13.442;2023-04-15T14:19:28;17.20;;;10.88;;
43626;SDS011;29217;52.586;13.442;2023-04-15T14:21:55;17.50;;;10.75;;
43626;SDS011;29217;52.586;13.442;2023-04-15T14:24:20;16.27;;;10.55;;
43626;SDS011;29217;52.586;13.442;2023-04-15T14:26:46;14.73;;;9.35;;
43626;SDS011;29217;52.586;13.442;2023-04-15T14:29:12;15.93;;;9.35;;
43626;SDS011;29217;52.586;13.442;2023-04-15T14:31:37;24.10;;;11.85;;
43626;SDS011;29217;52.586;13.442;2023-04-15T14:34:03;27.83;;;14.73;;
43626;SDS011;29217;52.586;13.442;2023-04-15T14:36:28;21.70;;;11.00;;
43626;SDS011;29217;52.586;13.442;2023-04-15T14:38:55;30.23;;;14.55;;
43626;SDS011;29217;52.586;13.442;2023-04-15T14:41:21;25.38;;;13.40;;
43626;SDS011;29217;52.586;13.442;2023-04-15T14:43:47;14.27;;;9.23;;
43626;SDS011;29217;52.586;13.442;2023-04-15T14:46:13;15.13;;;7.90;;
43626;SDS011;29217;52.586;13.442;2023-04-15T14:48:39;20.55;;;11.10;;
43626;SDS011;29217;52.586;13.442;2023-04-15T14:51:05;16.52;;;8.65;;
43626;SDS011;29217;52.586;13.442;2023-04-15T14:53:30;21.08;;;11.15;;